Time,TemperatureF,DewpointF,PressureIn,WindDirection,WindDirectionDegrees,WindSpeedMPH,WindSpeedGustMPH,Humidity,HourlyPrecipIn,Conditions,Clouds,dailyrainin,SolarRadiationWatts/m^2,SoftwareType,DateUTC
2013-10-26 00:02:00,44.0,22.0,-100.00,North,359,5.0,6.0,42,-99.99,,,0.00,0.000000,,2013-10-26 06:02:00,
2013-10-26 00:42:00,43.0,22.0,-100.00,North,7,3.0,6.0,43,-99.99,,,0.00,0.000000,,2013-10-26 06:42:00,
2013-10-26 00:52:00,43.0,22.0,-100.00,North,7,3.0,6.0,43,-99.99,,,0.00,0.000000,,2013-10-26 06:52:00,
2013-10-26 01:02:00,43.0,22.0,-100.00,North,7,3.0,6.0,43,-99.99,,,0.00,0.000000,,2013-10-26 07:02:00,
2013-10-26 01:42:00,41.0,23.0,-100.00,NNW,347,5.0,6.0,48,-99.99,,,0.00,0.000000,,2013-10-26 07:42:00,
2013-10-26 01:52:00,41.0,23.0,-100.00,NNW,347,5.0,6.0,48,-99.99,,,0.00,0.000000,,2013-10-26 07:52:00,
2013-10-26 02:02:00,41.0,23.0,-100.00,NNW,347,5.0,6.0,48,-99.99,,,0.00,0.000000,,2013-10-26 08:02:00,
2013-10-26 02:42:00,41.0,23.0,-100.00,NNW,345,5.0,6.0,48,-99.99,,,0.00,0.000000,,2013-10-26 08:42:00,
2013-10-26 02:52:00,41.0,23.0,-100.00,NNW,345,5.0,6.0,48,-99.99,,,0.00,0.000000,,2013-10-26 08:52:00,
2013-10-26 03:02:00,41.0,23.0,-100.00,NNW,345,5.0,6.0,48,-99.99,,,0.00,0.000000,,2013-10-26 09:02:00,
2013-10-26 03:43:00,41.0,24.0,-100.00,NNW,347,5.0,7.0,50,-99.99,,,0.00,0.000000,,2013-10-26 09:43:00,
2013-10-26 03:53:00,41.0,24.0,-100.00,NNW,347,5.0,7.0,50,-99.99,,,0.00,0.000000,,2013-10-26 09:53:00,
2013-10-26 04:03:00,41.0,24.0,-100.00,NNW,347,5.0,7.0,50,-99.99,,,0.00,0.000000,,2013-10-26 10:03:00,
2013-10-26 04:42:00,41.0,24.0,-100.00,NNW,348,7.0,7.0,51,-99.99,,,-99.99,0.000000,,2013-10-26 10:42:00,
2013-10-26 04:53:00,41.0,24.0,-100.00,NNW,348,7.0,7.0,51,-99.99,,,-99.99,0.000000,,2013-10-26 10:53:00,
2013-10-26 05:03:00,41.0,24.0,-100.00,NNW,348,7.0,7.0,51,-99.99,,,-99.99,0.000000,,2013-10-26 11:03:00,
2013-10-26 05:42:00,41.0,24.0,-100.00,North,355,6.0,8.0,50,-99.99,,,0.00,0.000000,,2013-10-26 11:42:00,
2013-10-26 05:52:00,41.0,24.0,-100.00,North,355,6.0,8.0,50,-99.99,,,0.00,0.000000,,2013-10-26 11:52:00,
2013-10-26 06:01:00,41.0,24.0,-100.00,North,355,6.0,8.0,50,-99.99,,,0.00,0.000000,,2013-10-26 12:01:00,
2013-10-26 12:52:00,54.0,24.0,-100.00,SSW,204,9.0,11.0,31,-99.99,,,0.00,560.000000,,2013-10-26 18:52:00,
2013-10-26 13:01:00,54.0,24.0,-100.00,SSW,204,9.0,11.0,31,-99.99,,,0.00,560.000000,,2013-10-26 19:01:00,
2013-10-26 13:42:00,57.0,25.0,-100.00,SSW,201,11.0,16.0,29,0.00,,,0.00,653.000000,,2013-10-26 19:42:00,
2013-10-26 13:52:00,57.0,25.0,-100.00,SSW,201,11.0,16.0,29,0.00,,,0.00,653.000000,,2013-10-26 19:52:00,
2013-10-26 14:02:00,57.0,25.0,-100.00,SSW,201,11.0,16.0,29,0.00,,,0.00,653.000000,,2013-10-26 20:02:00,
2013-10-26 14:43:00,58.0,23.0,-100.00,SW,214,10.0,20.0,26,0.00,,,0.00,683.000000,,2013-10-26 20:43:00,
2013-10-26 14:52:00,58.0,23.0,-100.00,SW,214,10.0,20.0,26,0.00,,,0.00,683.000000,,2013-10-26 20:52:00,
2013-10-26 15:02:00,58.0,23.0,-100.00,SW,214,10.0,20.0,26,0.00,,,0.00,683.000000,,2013-10-26 21:02:00,
2013-10-26 15:43:00,59.0,20.0,-100.00,SSW,207,10.0,19.0,22,0.00,,,0.00,648.000000,,2013-10-26 21:43:00,
2013-10-26 15:54:00,59.0,20.0,-100.00,SSW,207,10.0,19.0,22,0.00,,,0.00,648.000000,,2013-10-26 21:54:00,
2013-10-26 16:03:00,59.0,20.0,-100.00,SSW,207,10.0,19.0,22,0.00,,,0.00,648.000000,,2013-10-26 22:03:00,
2013-10-26 16:44:00,59.0,19.0,-100.00,West,269,10.0,16.0,21,0.00,,,0.00,546.000000,,2013-10-26 22:44:00,
2013-10-26 16:54:00,59.0,19.0,-100.00,West,269,10.0,16.0,21,0.00,,,0.00,546.000000,,2013-10-26 22:54:00,
2013-10-26 17:03:00,59.0,19.0,-100.00,West,269,10.0,16.0,21,0.00,,,0.00,546.000000,,2013-10-26 23:03:00,
2013-10-26 17:42:00,59.0,17.0,-100.00,WSW,257,8.0,17.0,19,0.00,,,0.00,392.000000,,2013-10-26 23:42:00,
2013-10-26 17:52:00,59.0,17.0,-100.00,WSW,257,8.0,17.0,19,0.00,,,0.00,392.000000,,2013-10-26 23:52:00,
2013-10-26 18:01:00,59.0,17.0,-100.00,WSW,257,8.0,17.0,19,0.00,,,0.00,392.000000,,2013-10-27 00:01:00,
2013-10-26 18:42:00,54.0,15.0,-100.00,WNW,292,9.0,19.0,21,0.00,,,0.00,199.000000,,2013-10-27 00:42:00,
2013-10-26 18:52:00,54.0,15.0,-100.00,WNW,292,9.0,19.0,21,0.00,,,0.00,199.000000,,2013-10-27 00:52:00,
2013-10-26 19:01:00,54.0,15.0,-100.00,WNW,292,9.0,19.0,21,0.00,,,0.00,199.000000,,2013-10-27 01:01:00,
2013-10-26 19:42:00,48.0,17.0,-100.00,NW,304,9.0,14.0,29,-99.99,,,0.00,16.000000,,2013-10-27 01:42:00,
2013-10-26 19:52:00,48.0,17.0,-100.00,NW,304,9.0,14.0,29,-99.99,,,0.00,16.000000,,2013-10-27 01:52:00,
2013-10-26 20:02:00,48.0,17.0,-100.00,NW,304,9.0,14.0,29,-99.99,,,0.00,16.000000,,2013-10-27 02:02:00,
2013-10-26 20:42:00,48.0,16.0,-100.00,West,260,9.0,15.0,28,0.00,,,0.00,0.000000,,2013-10-27 02:42:00,
2013-10-26 20:52:00,48.0,16.0,-100.00,West,260,9.0,15.0,28,0.00,,,0.00,0.000000,,2013-10-27 02:52:00,
2013-10-26 21:02:00,48.0,16.0,-100.00,West,260,9.0,15.0,28,0.00,,,0.00,0.000000,,2013-10-27 03:02:00,
2013-10-26 21:45:00,46.0,16.0,-100.00,South,191,6.0,11.0,30,-99.99,,,0.00,0.000000,,2013-10-27 03:45:00,
2013-10-26 21:55:00,46.0,16.0,-100.00,South,191,6.0,11.0,30,-99.99,,,0.00,0.000000,,2013-10-27 03:55:00,
2013-10-26 22:02:00,-999.0,-99.9,-100.00,South,191,6.0,11.0,-999,-99.99,,,-99.99,0.000000,,2013-10-27 04:02:00,
2013-10-26 22:44:00,45.0,18.0,-100.00,South,178,6.0,7.0,33,-99.99,,,0.00,0.000000,,2013-10-27 04:44:00,
2013-10-26 22:54:00,45.0,18.0,-100.00,South,178,6.0,7.0,33,-99.99,,,0.00,0.000000,,2013-10-27 04:54:00,
2013-10-26 23:04:00,45.0,18.0,-100.00,South,178,6.0,7.0,33,-99.99,,,0.00,0.000000,,2013-10-27 05:04:00,
2013-10-26 23:43:00,43.0,18.0,-100.00,SE,127,4.0,7.0,36,-99.99,,,0.00,0.000000,,2013-10-27 05:43:00,
2013-10-26 23:52:00,43.0,18.0,-100.00,SE,127,4.0,7.0,36,-99.99,,,0.00,0.000000,,2013-10-27 05:52:00,